sensor_id;sensor_type;location;lat;lon;timestamp;P1;durP1;ratioP1;P2;durP2;ratioP2
34403;SDS011;23116;47.660;9.126;2023-04-12T00:00:16;0.50;;;0.50;;
34403;SDS011;23116;47.660;9.126;2023-04-12T00:02:45;0.80;;;0.60;;
34403;SDS011;23116;47.660;9.126;2023-04-12T00:05:24;0.73;;;0.40;;
34403;SDS011;23116;47.660;9.126;2023-04-12T00:07:55;0.75;;;0.40;;
34403;SDS011;23116;47.660;9.126;2023-04-12T00:10:34;0.70;;;0.30;;
34403;SDS011;23116;47.660;9.126;2023-04-12T00:13:10;0.55;;;0.50;;
34403;SDS011;23116;47.660;9.126;2023-04-12T00:15:48;0.65;;;0.65;;
34403;SDS011;23116;47.660;9.126;2023-04-12T00:20:49;0.68;;;0.55;;
34403;SDS011;23116;47.660;9.126;2023-04-12T00:23:23;0.40;;;0.40;;
34403;SDS011;23116;47.660;9.126;2023-04-12T00:25:57;0.45;;;0.45;;
34403;SDS011;23116;47.660;9.126;2023-04-12T00:28:27;0.77;;;0.40;;
34403;SDS011;23116;47.660;9.126;2023-04-12T00:31:36;0.45;;;0.40;;
34403;SDS011;23116;47.660;9.126;2023-04-12T00:37:01;0.70;;;0.40;;
34403;SDS011;23116;47.660;9.126;2023-04-12T00:39:29;0.60;;;0.50;;
34403;SDS011;23116;47.660;9.126;2023-04-12T00:41:56;0.85;;;0.70;;
34403;SDS011;23116;47.660;9.126;2023-04-12T00:44:27;0.63;;;0.50;;
34403;SDS011;23116;47.660;9.126;2023-04-12T00:46:57;0.60;;;0.40;;
34403;SDS011;23116;47.660;9.126;2023-04-12T00:49:25;0.68;;;0.50;;
34403;SDS011;23116;47.660;9.126;2023-04-12T00:51:57;0.70;;;0.47;;
34403;SDS011;23116;47.660;9.126;2023-04-12T00:54:33;0.50;;;0.50;;
34403;SDS011;23116;47.660;9.126;2023-04-12T00:57:00;0.63;;;0.40;;
34403;SDS011;23116;47.660;9.126;2023-04-12T00:59:28;0.30;;;0.30;;
34403;SDS011;23116;47.660;9.126;2023-04-12T01:01:55;0.80;;;0.40;;
34403;SDS011;23116;47.660;9.126;2023-04-12T01:04:23;1.25;;;0.40;;
34403;SDS011;23116;47.660;9.126;2023-04-12T01:15:17;0.75;;;0.30;;
34403;SDS011;23116;47.660;9.126;2023-04-12T01:17:51;0.40;;;0.40;;
34403;SDS011;23116;47.660;9.126;2023-04-12T01:20:39;0.60;;;0.38;;
34403;SDS011;23116;47.660;9.126;2023-04-12T01:26:11;0.82;;;0.30;;
34403;SDS011;23116;47.660;9.126;2023-04-12T01:29:15;0.22;;;0.20;;
34403;SDS011;23116;47.660;9.126;2023-04-12T01:31:53;0.55;;;0.55;;
34403;SDS011;23116;47.660;9.126;2023-04-12T01:34:27;0.93;;;0.40;;
34403;SDS011;23116;47.660;9.126;2023-04-12T01:36:56;0.22;;;0.22;;
34403;SDS011;23116;47.660;9.126;2023-04-12T01:39:28;0.40;;;0.40;;
34403;SDS011;23116;47.660;9.126;2023-04-12T01:41:56;0.60;;;0.30;;
34403;SDS011;23116;47.660;9.126;2023-04-12T01:44:23;0.50;;;0.43;;
34403;SDS011;23116;47.660;9.126;2023-04-12T01:46:51;0.90;;;0.60;;
34403;SDS011;23116;47.660;9.126;2023-04-12T01:49:18;0.75;;;0.60;;
34403;SDS011;23116;47.660;9.126;2023-04-12T01:52:08;0.52;;;0.50;;
34403;SDS011;23116;47.660;9.126;2023-04-12T01:54:43;0.82;;;0.57;;
34403;SDS011;23116;47.660;9.126;2023-04-12T01:57:13;0.47;;;0.40;;
34403;SDS011;23116;47.660;9.126;2023-04-12T01:59:42;0.80;;;0.47;;
34403;SDS011;23116;47.660;9.126;2023-04-12T02:02:11;0.52;;;0.30;;
34403;SDS011;23116;47.660;9.126;2023-04-12T02:04:40;0.82;;;0.52;;
34403;SDS011;23116;47.660;9.126;2023-04-12T02:15:20;1.10;;;0.40;;
34403;SDS011;23116;47.660;9.126;2023-04-12T02:17:51;1.17;;;0.57;;
34403;SDS011;23116;47.660;9.126;2023-04-12T02:23:03;0.40;;;0.40;;
34403;SDS011;23116;47.660;9.126;2023-04-12T02:25:33;0.70;;;0.60;;
34403;SDS011;23116;47.660;9.126;2023-04-12T02:28:07;0.80;;;0.50;;
34403;SDS011;23116;47.660;9.126;2023-04-12T02:30:34;0.52;;;0.52;;
34403;SDS011;23116;47.660;9.126;2023-04-12T02:33:21;0.52;;;0.32;;
34403;SDS011;23116;47.660;9.126;2023-04-12T02:38:25;0.77;;;0.50;;
34403;SDS011;23116;47.660;9.126;2023-04-12T02:40:56;2.20;;;0.63;;
34403;SDS011;23116;47.660;9.126;2023-04-12T02:43:26;0.70;;;0.70;;
34403;SDS011;23116;47.660;9.126;2023-04-12T02:46:02;0.90;;;0.90;;
34403;SDS011;23116;47.660;9.126;2023-04-12T02:48:36;0.98;;;0.73;;
34403;SDS011;23116;47.660;9.126;2023-04-12T02:51:15;1.52;;;1.00;;
34403;SDS011;23116;47.660;9.126;2023-04-12T02:53:47;1.75;;;0.95;;
34403;SDS011;23116;47.660;9.126;2023-04-12T02:56:20;1.30;;;1.20;;
34403;SDS011;23116;47.660;9.126;2023-04-12T02:58:54;0.95;;;0.90;;
34403;SDS011;23116;47.660;9.126;2023-04-12T03:01:22;0.90;;;0.90;;
34403;SDS011;23116;47.660;9.126;2023-04-12T03:03:49;1.02;;;0.95;;
34403;SDS011;23116;47.660;9.126;2023-04-12T03:06:16;1.10;;;1.10;;
34403;SDS011;23116;47.660;9.126;2023-04-12T03:08:43;1.35;;;1.08;;
34403;SDS011;23116;47.660;9.126;2023-04-12T03:11:11;0.73;;;0.73;;
34403;SDS011;23116;47.660;9.126;2023-04-12T03:13:38;0.98;;;0.90;;
34403;SDS011;23116;47.660;9.126;2023-04-12T03:16:21;1.20;;;0.88;;
34403;SDS011;23116;47.660;9.126;2023-04-12T03:18:53;0.93;;;0.93;;
34403;SDS011;23116;47.660;9.126;2023-04-12T03:21:21;1.25;;;1.00;;
34403;SDS011;23116;47.660;9.126;2023-04-12T03:23:48;1.50;;;0.98;;
34403;SDS011;23116;47.660;9.126;2023-04-12T03:26:15;2.58;;;0.95;;
34403;SDS011;23116;47.660;9.126;2023-04-12T03:28:44;1.73;;;1.00;;
34403;SDS011;23116;47.660;9.126;2023-04-12T03:31:12;1.73;;;0.98;;
34403;SDS011;23116;47.660;9.126;2023-04-12T03:33:44;1.38;;;1.02;;
34403;SDS011;23116;47.660;9.126;2023-04-12T03:36:11;1.40;;;1.10;;
34403;SDS011;23116;47.660;9.126;2023-04-12T03:38:38;1.30;;;0.90;;
34403;SDS011;23116;47.660;9.126;2023-04-12T03:41:05;1.58;;;1.15;;
34403;SDS011;23116;47.660;9.126;2023-04-12T03:43:33;1.40;;;1.30;;
34403;SDS011;23116;47.660;9.126;2023-04-12T03:46:04;2.08;;;1.35;;
34403;SDS011;23116;47.660;9.126;2023-04-12T03:48:32;0.95;;;0.95;;
34403;SDS011;23116;47.660;9.126;2023-04-12T03:51:00;1.63;;;1.08;;
34403;SDS011;23116;47.660;9.126;2023-04-12T03:53:32;1.07;;;1.00;;
34403;SDS011;23116;47.660;9.126;2023-04-12T03:55:59;1.35;;;1.20;;
34403;SDS011;23116;47.660;9.126;2023-04-12T03:58:26;1.45;;;1.35;;
34403;SDS011;23116;47.660;9.126;2023-04-12T04:00:53;1.20;;;1.10;;
34403;SDS011;23116;47.660;9.126;2023-04-12T04:03:22;1.10;;;1.00;;
34403;SDS011;23116;47.660;9.126;2023-04-12T04:05:51;1.20;;;1.10;;
34403;SDS011;23116;47.660;9.126;2023-04-12T04:08:19;1.50;;;0.90;;
34403;SDS011;23116;47.660;9.126;2023-04-12T04:13:17;1.40;;;1.00;;
34403;SDS011;23116;47.660;9.126;2023-04-12T04:16:23;1.08;;;0.95;;
34403;SDS011;23116;47.660;9.126;2023-04-12T04:18:51;1.13;;;1.00;;
34403;SDS011;23116;47.660;9.126;2023-04-12T04:21:19;0.95;;;0.95;;
34403;SDS011;23116;47.660;9.126;2023-04-12T04:23:57;1.25;;;1.10;;
34403;SDS011;23116;47.660;9.126;2023-04-12T04:26:35;2.08;;;1.20;;
34403;SDS011;23116;47.660;9.126;2023-04-12T04:29:03;0.95;;;0.95;;
34403;SDS011;23116;47.660;9.126;2023-04-12T04:31:34;1.25;;;1.10;;
34403;SDS011;23116;47.660;9.126;2023-04-12T04:34:14;0.75;;;0.75;;
34403;SDS011;23116;47.660;9.126;2023-04-12T04:36:52;1.10;;;1.00;;
34403;SDS011;23116;47.660;9.126;2023-04-12T04:39:22;0.80;;;0.80;;
34403;SDS011;23116;47.660;9.126;2023-04-12T04:42:02;1.27;;;1.08;;
34403;SDS011;23116;47.660;9.126;2023-04-12T04:44:39;1.00;;;1.00;;
34403;SDS011;23116;47.660;9.126;2023-04-12T04:47:49;0.85;;;0.70;;
34403;SDS011;23116;47.660;9.126;2023-04-12T05:03:31;1.52;;;1.42;;
34403;SDS011;23116;47.660;9.126;2023-04-12T05:05:58;1.60;;;1.50;;
34403;SDS011;23116;47.660;9.126;2023-04-12T05:08:27;2.10;;;1.80;;
34403;SDS011;23116;47.660;9.126;2023-04-12T05:10:55;2.33;;;2.10;;
34403;SDS011;23116;47.660;9.126;2023-04-12T05:13:22;1.95;;;1.85;;
34403;SDS011;23116;47.660;9.126;2023-04-12T05:15:49;2.20;;;2.00;;
34403;SDS011;23116;47.660;9.126;2023-04-12T05:18:17;1.92;;;1.83;;
34403;SDS011;23116;47.660;9.126;2023-04-12T05:20:47;1.90;;;1.80;;
34403;SDS011;23116;47.660;9.126;2023-04-12T05:23:14;1.70;;;1.60;;
34403;SDS011;23116;47.660;9.126;2023-04-12T05:25:45;1.75;;;1.65;;
34403;SDS011;23116;47.660;9.126;2023-04-12T05:28:14;1.50;;;1.40;;
34403;SDS011;23116;47.660;9.126;2023-04-12T05:33:18;1.30;;;1.20;;
34403;SDS011;23116;47.660;9.126;2023-04-12T05:35:46;1.00;;;1.00;;
34403;SDS011;23116;47.660;9.126;2023-04-12T05:38:13;0.85;;;0.80;;
34403;SDS011;23116;47.660;9.126;2023-04-12T05:40:40;0.80;;;0.80;;
34403;SDS011;23116;47.660;9.126;2023-04-12T05:43:08;1.30;;;1.20;;
34403;SDS011;23116;47.660;9.126;2023-04-12T05:45:37;1.10;;;1.00;;
34403;SDS011;23116;47.660;9.126;2023-04-12T05:48:08;1.02;;;0.93;;
34403;SDS011;23116;47.660;9.126;2023-04-12T05:50:36;0.90;;;0.90;;
34403;SDS011;23116;47.660;9.126;2023-04-12T05:53:03;0.90;;;0.90;;
34403;SDS011;23116;47.660;9.126;2023-04-12T05:55:30;1.00;;;0.88;;
34403;SDS011;23116;47.660;9.126;2023-04-12T05:57:57;1.08;;;0.98;;
34403;SDS011;23116;47.660;9.126;2023-04-12T06:00:25;0.70;;;0.70;;
34403;SDS011;23116;47.660;9.126;2023-04-12T06:02:52;0.60;;;0.60;;
34403;SDS011;23116;47.660;9.126;2023-04-12T06:05:22;1.17;;;0.73;;
34403;SDS011;23116;47.660;9.126;2023-04-12T06:07:49;0.68;;;0.68;;
34403;SDS011;23116;47.660;9.126;2023-04-12T06:10:16;0.95;;;0.95;;
34403;SDS011;23116;47.660;9.126;2023-04-12T06:12:46;1.55;;;0.75;;
34403;SDS011;23116;47.660;9.126;2023-04-12T06:15:13;1.52;;;0.82;;
34403;SDS011;23116;47.660;9.126;2023-04-12T06:17:41;0.98;;;0.88;;
34403;SDS011;23116;47.660;9.126;2023-04-12T06:20:12;1.20;;;1.10;;
34403;SDS011;23116;47.660;9.126;2023-04-12T06:22:42;0.93;;;0.70;;
34403;SDS011;23116;47.660;9.126;2023-04-12T06:25:22;0.70;;;0.70;;
34403;SDS011;23116;47.660;9.126;2023-04-12T06:27:50;2.67;;;0.80;;
34403;SDS011;23116;47.660;9.126;2023-04-12T06:30:17;0.80;;;0.70;;
34403;SDS011;23116;47.660;9.126;2023-04-12T06:32:54;0.80;;;0.80;;
34403;SDS011;23116;47.660;9.126;2023-04-12T06:35:28;0.90;;;0.90;;
34403;SDS011;23116;47.660;9.126;2023-04-12T06:37:59;0.77;;;0.77;;
34403;SDS011;23116;47.660;9.126;2023-04-12T06:40:29;1.05;;;0.88;;
34403;SDS011;23116;47.660;9.126;2023-04-12T06:43:00;1.17;;;1.10;;
34403;SDS011;23116;47.660;9.126;2023-04-12T06:45:36;0.77;;;0.77;;
34403;SDS011;23116;47.660;9.126;2023-04-12T06:48:04;3.90;;;0.88;;
34403;SDS011;23116;47.660;9.126;2023-04-12T06:50:50;0.80;;;0.73;;
34403;SDS011;23116;47.660;9.126;2023-04-12T06:53:21;0.75;;;0.75;;
34403;SDS011;23116;47.660;9.126;2023-04-12T06:55:52;1.30;;;0.85;;
34403;SDS011;23116;47.660;9.126;2023-04-12T07:06:09;0.90;;;0.90;;
34403;SDS011;23116;47.660;9.126;2023-04-12T07:08:37;1.20;;;1.10;;
34403;SDS011;23116;47.660;9.126;2023-04-12T07:11:04;0.88;;;0.88;;
34403;SDS011;23116;47.660;9.126;2023-04-12T07:13:32;1.08;;;0.98;;
34403;SDS011;23116;47.660;9.126;2023-04-12T07:15:59;1.13;;;1.10;;
34403;SDS011;23116;47.660;9.126;2023-04-12T07:18:27;0.95;;;0.93;;
34403;SDS011;23116;47.660;9.126;2023-04-12T07:20:54;0.98;;;0.85;;
34403;SDS011;23116;47.660;9.126;2023-04-12T07:23:28;2.15;;;0.88;;
34403;SDS011;23116;47.660;9.126;2023-04-12T07:25:58;1.30;;;1.20;;
34403;SDS011;23116;47.660;9.126;2023-04-12T07:28:26;1.13;;;1.10;;
34403;SDS011;23116;47.660;9.126;2023-04-12T07:30:53;1.75;;;1.17;;
34403;SDS011;23116;47.660;9.126;2023-04-12T07:33:24;1.50;;;1.40;;
34403;SDS011;23116;47.660;9.126;2023-04-12T07:35:52;1.40;;;1.30;;
34403;SDS011;23116;47.660;9.126;2023-04-12T07:38:19;1.58;;;1.33;;
34403;SDS011;23116;47.660;9.126;2023-04-12T07:40:46;2.17;;;1.42;;
34403;SDS011;23116;47.660;9.126;2023-04-12T07:43:14;1.02;;;1.02;;
34403;SDS011;23116;47.660;9.126;2023-04-12T07:45:42;1.50;;;1.17;;
34403;SDS011;23116;47.660;9.126;2023-04-12T07:48:10;1.10;;;1.00;;
34403;SDS011;23116;47.660;9.126;2023-04-12T07:50:40;1.52;;;1.10;;
34403;SDS011;23116;47.660;9.126;2023-04-12T07:53:17;1.33;;;1.00;;
34403;SDS011;23116;47.660;9.126;2023-04-12T07:55:50;1.30;;;1.20;;
34403;SDS011;23116;47.660;9.126;2023-04-12T07:58:19;1.50;;;1.20;;
34403;SDS011;23116;47.660;9.126;2023-04-12T08:00:48;1.92;;;1.20;;
34403;SDS011;23116;47.660;9.126;2023-04-12T08:03:16;1.27;;;0.85;;
34403;SDS011;23116;47.660;9.126;2023-04-12T08:05:44;2.08;;;0.75;;
34403;SDS011;23116;47.660;9.126;2023-04-12T08:08:13;0.88;;;0.88;;
34403;SDS011;23116;47.660;9.126;2023-04-12T08:10:40;1.40;;;1.00;;
34403;SDS011;23116;47.660;9.126;2023-04-12T08:13:07;1.02;;;1.02;;
34403;SDS011;23116;47.660;9.126;2023-04-12T08:15:35;2.20;;;1.00;;
34403;SDS011;23116;47.660;9.126;2023-04-12T08:18:11;1.13;;;1.08;;
34403;SDS011;23116;47.660;9.126;2023-04-12T08:20:48;1.00;;;0.90;;
34403;SDS011;23116;47.660;9.126;2023-04-12T08:23:19;1.40;;;1.17;;
34403;SDS011;23116;47.660;9.126;2023-04-12T08:25:47;1.63;;;1.42;;
34403;SDS011;23116;47.660;9.126;2023-04-12T08:28:52;1.40;;;1.30;;
34403;SDS011;23116;47.660;9.126;2023-04-12T08:33:57;1.35;;;1.00;;
34403;SDS011;23116;47.660;9.126;2023-04-12T08:36:28;2.17;;;1.20;;
34403;SDS011;23116;47.660;9.126;2023-04-12T08:38:59;1.05;;;1.05;;
34403;SDS011;23116;47.660;9.126;2023-04-12T08:41:35;1.17;;;1.08;;
34403;SDS011;23116;47.660;9.126;2023-04-12T08:44:16;0.90;;;0.90;;
34403;SDS011;23116;47.660;9.126;2023-04-12T08:46:46;1.17;;;1.00;;
34403;SDS011;23116;47.660;9.126;2023-04-12T08:49:26;1.15;;;1.02;;
34403;SDS011;23116;47.660;9.126;2023-04-12T08:52:04;1.83;;;1.20;;
34403;SDS011;23116;47.660;9.126;2023-04-12T08:54:36;1.08;;;1.08;;
34403;SDS011;23116;47.660;9.126;2023-04-12T08:57:13;1.10;;;0.90;;
34403;SDS011;23116;47.660;9.126;2023-04-12T08:59:45;1.20;;;1.10;;
34403;SDS011;23116;47.660;9.126;2023-04-12T09:02:14;1.52;;;1.05;;
34403;SDS011;23116;47.660;9.126;2023-04-12T09:04:48;4.47;;;1.58;;
34403;SDS011;23116;47.660;9.126;2023-04-12T09:07:17;0.90;;;0.90;;
34403;SDS011;23116;47.660;9.126;2023-04-12T09:09:51;1.48;;;0.90;;
34403;SDS011;23116;47.660;9.126;2023-04-12T09:12:20;1.08;;;0.90;;
34403;SDS011;23116;47.660;9.126;2023-04-12T09:15:04;1.02;;;0.90;;
34403;SDS011;23116;47.660;9.126;2023-04-12T09:17:39;1.25;;;0.80;;
34403;SDS011;23116;47.660;9.126;2023-04-12T09:22:44;1.38;;;0.90;;
34403;SDS011;23116;47.660;9.126;2023-04-12T09:25:12;1.80;;;0.88;;
34403;SDS011;23116;47.660;9.126;2023-04-12T09:27:47;1.75;;;1.00;;
34403;SDS011;23116;47.660;9.126;2023-04-12T09:32:51;1.75;;;1.13;;
34403;SDS011;23116;47.660;9.126;2023-04-12T09:35:32;1.17;;;0.70;;
34403;SDS011;23116;47.660;9.126;2023-04-12T09:38:05;0.80;;;0.80;;
34403;SDS011;23116;47.660;9.126;2023-04-12T09:40:34;0.93;;;0.80;;
34403;SDS011;23116;47.660;9.126;2023-04-12T09:43:02;0.77;;;0.70;;
34403;SDS011;23116;47.660;9.126;2023-04-12T09:45:32;7.25;;;1.55;;
34403;SDS011;23116;47.660;9.126;2023-04-12T09:48:03;1.60;;;1.10;;
34403;SDS011;23116;47.660;9.126;2023-04-12T09:50:31;1.00;;;0.90;;
34403;SDS011;23116;47.660;9.126;2023-04-12T09:53:02;1.48;;;1.05;;
34403;SDS011;23116;47.660;9.126;2023-04-12T09:55:38;1.30;;;0.93;;
34403;SDS011;23116;47.660;9.126;2023-04-12T09:58:05;1.48;;;1.00;;
34403;SDS011;23116;47.660;9.126;2023-04-12T10:00:33;2.47;;;1.40;;
34403;SDS011;23116;47.660;9.126;2023-04-12T10:03:01;1.42;;;1.25;;
34403;SDS011;23116;47.660;9.126;2023-04-12T10:05:31;0.80;;;0.80;;
34403;SDS011;23116;47.660;9.126;2023-04-12T10:07:59;1.20;;;0.98;;
34403;SDS011;23116;47.660;9.126;2023-04-12T10:10:26;0.90;;;0.90;;
34403;SDS011;23116;47.660;9.126;2023-04-12T10:12:54;1.88;;;1.10;;
34403;SDS011;23116;47.660;9.126;2023-04-12T10:15:21;1.58;;;1.35;;
34403;SDS011;23116;47.660;9.126;2023-04-12T10:17:53;1.30;;;1.20;;
34403;SDS011;23116;47.660;9.126;2023-04-12T10:22:58;1.27;;;1.00;;
34403;SDS011;23116;47.660;9.126;2023-04-12T10:25:28;0.95;;;0.95;;
34403;SDS011;23116;47.660;9.126;2023-04-12T10:31:47;1.20;;;1.00;;
34403;SDS011;23116;47.660;9.126;2023-04-12T10:34:34;0.80;;;0.80;;
34403;SDS011;23116;47.660;9.126;2023-04-12T10:43:50;0.98;;;0.80;;
34403;SDS011;23116;47.660;9.126;2023-04-12T10:46:56;1.02;;;0.88;;
34403;SDS011;23116;47.660;9.126;2023-04-12T10:59:13;1.05;;;0.90;;
34403;SDS011;23116;47.660;9.126;2023-04-12T11:02:09;1.98;;;1.20;;
34403;SDS011;23116;47.660;9.126;2023-04-12T11:04:37;1.67;;;1.00;;
34403;SDS011;23116;47.660;9.126;2023-04-12T11:07:39;2.13;;;1.10;;
34403;SDS011;23116;47.660;9.126;2023-04-12T11:10:12;1.00;;;1.00;;
34403;SDS011;23116;47.660;9.126;2023-04-12T11:12:46;0.90;;;0.90;;
34403;SDS011;23116;47.660;9.126;2023-04-12T11:15:16;1.40;;;1.10;;
34403;SDS011;23116;47.660;9.126;2023-04-12T11:17:52;1.00;;;1.00;;
34403;SDS011;23116;47.660;9.126;2023-04-12T11:22:56;2.45;;;1.40;;
34403;SDS011;23116;47.660;9.126;2023-04-12T11:25:24;0.95;;;0.93;;
34403;SDS011;23116;47.660;9.126;2023-04-12T11:27:54;2.40;;;1.10;;
34403;SDS011;23116;47.660;9.126;2023-04-12T11:30:23;1.25;;;0.80;;
34403;SDS011;23116;47.660;9.126;2023-04-12T11:32:50;0.77;;;0.77;;
34403;SDS011;23116;47.660;9.126;2023-04-12T11:35:26;2.25;;;1.15;;
34403;SDS011;23116;47.660;9.126;2023-04-12T11:37:54;0.68;;;0.68;;
34403;SDS011;23116;47.660;9.126;2023-04-12T11:40:22;1.95;;;1.05;;
34403;SDS011;23116;47.660;9.126;2023-04-12T11:42:50;1.50;;;0.82;;
34403;SDS011;23116;47.660;9.126;2023-04-12T11:45:18;1.30;;;1.10;;
34403;SDS011;23116;47.660;9.126;2023-04-12T11:47:46;1.52;;;0.98;;
34403;SDS011;23116;47.660;9.126;2023-04-12T11:50:26;2.20;;;1.00;;
34403;SDS011;23116;47.660;9.126;2023-04-12T11:53:13;1.20;;;0.90;;
34403;SDS011;23116;47.660;9.126;2023-04-12T11:55:46;0.63;;;0.60;;
34403;SDS011;23116;47.660;9.126;2023-04-12T12:03:20;0.75;;;0.68;;
34403;SDS011;23116;47.660;9.126;2023-04-12T12:06:21;0.73;;;0.73;;
34403;SDS011;23116;47.660;9.126;2023-04-12T12:11:47;1.38;;;0.73;;
34403;SDS011;23116;47.660;9.126;2023-04-12T12:14:43;2.05;;;1.02;;
34403;SDS011;23116;47.660;9.126;2023-04-12T12:23:35;1.17;;;0.90;;
34403;SDS011;23116;47.660;9.126;2023-04-12T12:26:38;1.50;;;1.13;;
34403;SDS011;23116;47.660;9.126;2023-04-12T12:29:26;2.08;;;0.77;;
34403;SDS011;23116;47.660;9.126;2023-04-12T12:35:36;1.00;;;0.80;;
34403;SDS011;23116;47.660;9.126;2023-04-12T12:41:53;0.80;;;0.80;;
34403;SDS011;23116;47.660;9.126;2023-04-12T12:45:05;1.02;;;0.80;;
34403;SDS011;23116;47.660;9.126;2023-04-12T12:48:09;2.15;;;1.17;;
34403;SDS011;23116;47.660;9.126;2023-04-12T12:50:57;0.73;;;0.73;;
34403;SDS011;23116;47.660;9.126;2023-04-12T12:54:00;0.55;;;0.55;;
34403;SDS011;23116;47.660;9.126;2023-04-12T12:59:55;0.90;;;0.80;;
34403;SDS011;23116;47.660;9.126;2023-04-12T13:02:37;2.22;;;1.00;;
34403;SDS011;23116;47.660;9.126;2023-04-12T13:05:08;3.90;;;1.30;;
34403;SDS011;23116;47.660;9.126;2023-04-12T13:07:36;1.02;;;0.90;;
34403;SDS011;23116;47.660;9.126;2023-04-12T13:10:04;0.80;;;0.80;;
34403;SDS011;23116;47.660;9.126;2023-04-12T13:12:32;0.75;;;0.70;;
34403;SDS011;23116;47.660;9.126;2023-04-12T13:14:59;0.85;;;0.85;;
34403;SDS011;23116;47.660;9.126;2023-04-12T13:17:27;0.82;;;0.70;;
34403;SDS011;23116;47.660;9.126;2023-04-12T13:19:55;0.57;;;0.45;;
34403;SDS011;23116;47.660;9.126;2023-04-12T13:22:23;0.73;;;0.70;;
34403;SDS011;23116;47.660;9.126;2023-04-12T13:24:51;1.52;;;0.77;;
34403;SDS011;23116;47.660;9.126;2023-04-12T13:27:19;2.25;;;1.40;;
34403;SDS011;23116;47.660;9.126;2023-04-12T13:29:49;1.10;;;1.00;;
34403;SDS011;23116;47.660;9.126;2023-04-12T13:32:16;0.82;;;0.70;;
34403;SDS011;23116;47.660;9.126;2023-04-12T13:34:43;1.23;;;0.80;;
34403;SDS011;23116;47.660;9.126;2023-04-12T13:37:11;0.70;;;0.70;;
34403;SDS011;23116;47.660;9.126;2023-04-12T13:39:40;1.77;;;1.08;;
34403;SDS011;23116;47.660;9.126;2023-04-12T13:42:08;1.45;;;0.80;;
34403;SDS011;23116;47.660;9.126;2023-04-12T13:44:36;1.10;;;0.88;;
34403;SDS011;23116;47.660;9.126;2023-04-12T13:47:03;1.08;;;0.57;;
34403;SDS011;23116;47.660;9.126;2023-04-12T13:49:36;0.63;;;0.63;;
34403;SDS011;23116;47.660;9.126;2023-04-12T13:52:05;0.82;;;0.70;;
34403;SDS011;23116;47.660;9.126;2023-04-12T13:54:32;0.70;;;0.70;;
34403;SDS011;23116;47.660;9.126;2023-04-12T13:57:03;3.38;;;1.25;;
34403;SDS011;23116;47.660;9.126;2023-04-12T13:59:33;0.75;;;0.75;;
34403;SDS011;23116;47.660;9.126;2023-04-12T14:02:00;2.35;;;1.00;;
34403;SDS011;23116;47.660;9.126;2023-04-12T14:04:28;0.95;;;0.90;;
34403;SDS011;23116;47.660;9.126;2023-04-12T14:06:58;1.23;;;0.80;;
34403;SDS011;23116;47.660;9.126;2023-04-12T14:09:29;2.00;;;0.88;;
34403;SDS011;23116;47.660;9.126;2023-04-12T14:12:13;0.73;;;0.43;;
34403;SDS011;23116;47.660;9.126;2023-04-12T14:14:58;0.80;;;0.70;;
34403;SDS011;23116;47.660;9.126;2023-04-12T14:17:35;1.50;;;0.77;;
34403;SDS011;23116;47.660;9.126;2023-04-12T14:20:05;2.67;;;0.63;;
34403;SDS011;23116;47.660;9.126;2023-04-12T14:22:40;0.40;;;0.40;;
34403;SDS011;23116;47.660;9.126;2023-04-12T14:25:16;1.17;;;0.60;;
34403;SDS011;23116;47.660;9.126;2023-04-12T14:28:22;0.43;;;0.43;;
34403;SDS011;23116;47.660;9.126;2023-04-12T14:31:15;0.50;;;0.50;;
34403;SDS011;23116;47.660;9.126;2023-04-12T14:33:55;0.85;;;0.70;;
34403;SDS011;23116;47.660;9.126;2023-04-12T14:36:28;1.60;;;0.88;;
34403;SDS011;23116;47.660;9.126;2023-04-12T14:39:03;0.50;;;0.50;;
34403;SDS011;23116;47.660;9.126;2023-04-12T14:41:32;0.95;;;0.60;;
34403;SDS011;23116;47.660;9.126;2023-04-12T14:44:23;0.50;;;0.50;;
34403;SDS011;23116;47.660;9.126;2023-04-12T14:47:03;1.90;;;0.60;;
34403;SDS011;23116;47.660;9.126;2023-04-12T14:49:46;2.25;;;0.52;;
34403;SDS011;23116;47.660;9.126;2023-04-12T14:52:20;0.75;;;0.60;;
34403;SDS011;23116;47.660;9.126;2023-04-12T14:55:03;0.60;;;0.50;;
34403;SDS011;23116;47.660;9.126;2023-04-12T14:57:44;0.40;;;0.40;;
34403;SDS011;23116;47.660;9.126;2023-04-12T15:00:15;0.63;;;0.30;;
34403;SDS011;23116;47.660;9.126;2023-04-12T15:02:46;0.47;;;0.47;;
34403;SDS011;23116;47.660;9.126;2023-04-12T15:05:13;1.52;;;0.68;;
34403;SDS011;23116;47.660;9.126;2023-04-12T15:07:40;0.98;;;0.75;;
34403;SDS011;23116;47.660;9.126;2023-04-12T15:10:08;0.70;;;0.57;;
34403;SDS011;23116;47.660;9.126;2023-04-12T15:12:38;0.47;;;0.43;;
34403;SDS011;23116;47.660;9.126;2023-04-12T15:15:05;0.88;;;0.63;;
34403;SDS011;23116;47.660;9.126;2023-04-12T15:17:33;0.80;;;0.70;;
34403;SDS011;23116;47.660;9.126;2023-04-12T15:20:01;1.50;;;0.63;;
34403;SDS011;23116;47.660;9.126;2023-04-12T15:22:36;0.98;;;0.38;;
34403;SDS011;23116;47.660;9.126;2023-04-12T15:25:04;1.08;;;0.73;;
34403;SDS011;23116;47.660;9.126;2023-04-12T15:27:32;1.35;;;0.40;;
34403;SDS011;23116;47.660;9.126;2023-04-12T15:29:59;0.75;;;0.50;;
34403;SDS011;23116;47.660;9.126;2023-04-12T15:32:29;0.40;;;0.40;;
34403;SDS011;23116;47.660;9.126;2023-04-12T15:34:57;0.75;;;0.50;;
34403;SDS011;23116;47.660;9.126;2023-04-12T15:37:24;0.93;;;0.60;;
34403;SDS011;23116;47.660;9.126;2023-04-12T15:39:52;0.30;;;0.30;;
34403;SDS011;23116;47.660;9.126;2023-04-12T15:42:19;0.40;;;0.40;;
34403;SDS011;23116;47.660;9.126;2023-04-12T15:44:46;0.50;;;0.50;;
34403;SDS011;23116;47.660;9.126;2023-04-12T15:47:13;2.03;;;0.50;;
34403;SDS011;23116;47.660;9.126;2023-04-12T15:49:40;0.75;;;0.52;;
34403;SDS011;23116;47.660;9.126;2023-04-12T15:52:07;0.90;;;0.50;;
34403;SDS011;23116;47.660;9.126;2023-04-12T15:54:35;0.70;;;0.70;;
34403;SDS011;23116;47.660;9.126;2023-04-12T15:57:06;0.70;;;0.70;;
34403;SDS011;23116;47.660;9.126;2023-04-12T15:59:35;1.10;;;0.70;;
34403;SDS011;23116;47.660;9.126;2023-04-12T16:02:04;0.90;;;0.70;;
34403;SDS011;23116;47.660;9.126;2023-04-12T16:04:33;0.40;;;0.30;;
34403;SDS011;23116;47.660;9.126;2023-04-12T16:07:04;0.47;;;0.47;;
34403;SDS011;23116;47.660;9.126;2023-04-12T16:09:35;0.68;;;0.63;;
34403;SDS011;23116;47.660;9.126;2023-04-12T16:12:06;0.93;;;0.70;;
34403;SDS011;23116;47.660;9.126;2023-04-12T16:14:40;0.60;;;0.60;;
34403;SDS011;23116;47.660;9.126;2023-04-12T16:17:08;1.10;;;0.60;;
34403;SDS011;23116;47.660;9.126;2023-04-12T16:19:38;0.35;;;0.35;;
34403;SDS011;23116;47.660;9.126;2023-04-12T16:22:05;0.75;;;0.50;;
34403;SDS011;23116;47.660;9.126;2023-04-12T16:24:35;0.63;;;0.50;;
34403;SDS011;23116;47.660;9.126;2023-04-12T16:27:03;0.80;;;0.60;;
34403;SDS011;23116;47.660;9.126;2023-04-12T16:29:42;0.82;;;0.60;;
34403;SDS011;23116;47.660;9.126;2023-04-12T16:32:10;1.23;;;0.70;;
34403;SDS011;23116;47.660;9.126;2023-04-12T16:34:43;0.88;;;0.50;;
34403;SDS011;23116;47.660;9.126;2023-04-12T16:37:15;0.70;;;0.65;;
34403;SDS011;23116;47.660;9.126;2023-04-12T16:39:54;0.52;;;0.43;;
34403;SDS011;23116;47.660;9.126;2023-04-12T16:42:24;1.63;;;0.73;;
34403;SDS011;23116;47.660;9.126;2023-04-12T16:44:55;2.10;;;1.00;;
34403;SDS011;23116;47.660;9.126;2023-04-12T16:47:26;2.33;;;0.80;;
34403;SDS011;23116;47.660;9.126;2023-04-12T16:49:54;0.60;;;0.60;;
34403;SDS011;23116;47.660;9.126;2023-04-12T16:52:21;0.93;;;0.50;;
34403;SDS011;23116;47.660;9.126;2023-04-12T16:55:01;0.50;;;0.50;;
34403;SDS011;23116;47.660;9.126;2023-04-12T16:57:52;1.40;;;0.50;;
34403;SDS011;23116;47.660;9.126;2023-04-12T17:00:20;0.25;;;0.25;;
34403;SDS011;23116;47.660;9.126;2023-04-12T17:02:49;0.82;;;0.20;;
34403;SDS011;23116;47.660;9.126;2023-04-12T17:05:21;0.50;;;0.50;;
34403;SDS011;23116;47.660;9.126;2023-04-12T17:07:52;0.68;;;0.30;;
34403;SDS011;23116;47.660;9.126;2023-04-12T17:10:22;0.30;;;0.30;;
34403;SDS011;23116;47.660;9.126;2023-04-12T17:12:51;0.60;;;0.40;;